This is the latest recevied weather packets stored in our database for station/object KD8OZS. If no packets are shown the sender has not sent any weather packets the latest 10 day(s).
| Time | Temp. | Humidity | Pressure | Rain* | Wind** | Luminosity | Snow |
|---|---|---|---|---|---|---|---|
| 1777842418 | 15° C | 42% | 1006 hPa | 0 mm | - | 302 W/m² | - |
| 1777842115 | 15° C | 42% | 1006 hPa | 0 mm | - | 201 W/m² | - |
| 1777841810 | 15° C | 40% | 1006 hPa | 0 mm | - | 212 W/m² | - |
| 1777841507 | 14.44° C | 42% | 1006.2 hPa | 0 mm | - | 345 W/m² | - |
| 1777841203 | 15° C | 41% | 1006 hPa | 0 mm | - | 174 W/m² | - |
| 1777840901 | 15.56° C | 40% | 1006.2 hPa | 0 mm | - | 180 W/m² | - |
| 1777840598 | 15.56° C | 40% | 1006.2 hPa | 0 mm | - | 392 W/m² | - |
| 1777840296 | 15° C | 42% | 1006 hPa | 0 mm | - | 231 W/m² | - |
| 1777839993 | 15° C | 41% | 1006.2 hPa | 0 mm | - | 237 W/m² | - |
| 1777839691 | 15.56° C | 41% | 1006.1 hPa | 0 mm | - | 201 W/m² | - |
| 1777839389 | 15° C | 41% | 1006.3 hPa | 0 mm | - | 534 W/m² | - |
| 1777839086 | 15.56° C | 43% | 1006.3 hPa | 0 mm | - | 199 W/m² | - |
| 1777838782 | 16.11° C | 40% | 1006.4 hPa | 0 mm | - | 503 W/m² | - |
| 1777838478 | 16.11° C | 41% | 1006.5 hPa | 0 mm | - | 203 W/m² | - |
| 1777838175 | 16.67° C | 38% | 1006.5 hPa | 0 mm | - | 483 W/m² | - |
| 1777837872 | 16.11° C | 41% | 1006.5 hPa | 0 mm | - | 467 W/m² | - |
| 1777837570 | 15.56° C | 38% | 1006.5 hPa | 0 mm | - | 496 W/m² | - |
| 1777837264 | 15.56° C | 42% | 1006.8 hPa | 0 mm | - | 477 W/m² | - |
| 1777836961 | 15.56° C | 43% | 1006.9 hPa | 0 mm | - | 340 W/m² | - |
| 1777836656 | 15.56° C | 42% | 1007 hPa | 0 mm | - | 621 W/m² | - |
| 1777836353 | 15° C | 43% | 1007 hPa | 0 mm | - | 372 W/m² | - |
| 1777836049 | 15.56° C | 44% | 1007.1 hPa | 0 mm | - | 221 W/m² | - |
| 1777835746 | 15.56° C | 41% | 1007.2 hPa | 0 mm | - | 571 W/m² | - |
| 1777835443 | 15° C | 42% | 1007.3 hPa | 0 mm | - | 638 W/m² | - |
| 1777835139 | 15.56° C | 41% | 1007.3 hPa | 0 mm | - | 526 W/m² | - |
* Rain latest hour (hover to see other rain measurements)
** Current wind speed in m/s (hover to see current wind gust speed)